Time;durP1;ratioP1;P1;durP2;ratioP2;P2;SDS_P1;SDS_P2;PMS_P1;PMS_P2;Temp;Humidity;BMP_temperature;BMP_pressure;BME280_temperature;BME280_humidity;BME280_pressure;Samples;Min_cycle;Max_cycle;Signal;HPM_P1;HPM_P2
2023/03/26 00:01:14;;;;;;;;;;;;;;;11.44;59.92;96651.31;4988950;28;19918;-75
2023/03/26 00:03:39;;;;;;;;;;;;;;;11.49;59.19;96655.75;5006545;28;19993;-74
2023/03/26 00:06:24;;;;;;;;;;;;;;;11.57;58.99;96661.22;4990386;28;19926;-76
2023/03/26 00:08:50;;;;;;;;;;;;;;;11.60;59.27;96662.50;4974163;28;20005;-74
2023/03/26 00:11:16;;;;;;;;;;;;;;;11.59;59.00;96653.13;4980696;28;20017;-75
2023/03/26 00:13:42;;;;;;;;;;;;;;;11.64;59.34;96647.91;4985022;28;19938;-75
2023/03/26 00:16:08;;;;;;;;;;;;;;;11.59;58.94;96648.69;4971883;28;19919;-74
2023/03/26 00:18:33;;;;;;;;;;;;;;;11.57;59.37;96642.97;5006671;28;20008;-75
2023/03/26 00:21:00;;;;;;;;;;;;;;;11.54;59.28;96648.69;5005797;28;20013;-76
2023/03/26 00:23:26;;;;;;;;;;;;;;;11.61;58.74;96638.00;4978735;28;19984;-75
2023/03/26 00:25:52;;;;;;;;;;;;;;;11.68;58.83;96643.72;5002806;28;20385;-75
2023/03/26 00:28:20;;;;;;;;;;;;;;;11.55;58.71;96639.03;5005166;28;19929;-74
2023/03/26 00:30:46;;;;;;;;;;;;;;;11.68;58.47;96638.50;5005428;28;19918;-75
2023/03/26 00:33:11;;;;;;;;;;;;;;;11.56;59.22;96630.19;4980994;28;19917;-75
2023/03/26 00:35:37;;;;;;;;;;;;;;;11.38;59.34;96629.69;5006158;28;19964;-75
2023/03/26 00:38:02;;;;;;;;;;;;;;;11.44;59.32;96627.84;4981350;28;19925;-75
2023/03/26 00:40:28;;;;;;;;;;;;;;;11.43;59.42;96627.09;4973326;28;19953;-75
2023/03/26 00:42:54;;;;;;;;;;;;;;;11.41;59.47;96623.97;4989884;28;19918;-76
2023/03/26 00:45:20;;;;;;;;;;;;;;;11.22;59.98;96613.31;4988592;28;20242;-75
2023/03/26 00:47:46;;;;;;;;;;;;;;;11.19;60.33;96610.41;5005681;28;20349;-75
2023/03/26 00:50:14;;;;;;;;;;;;;;;11.31;59.90;96613.56;4980901;28;19961;-75
2023/03/26 00:52:43;;;;;;;;;;;;;;;11.37;59.39;96612.47;4989313;28;19965;-76
2023/03/26 00:55:09;;;;;;;;;;;;;;;11.37;59.47;96609.88;4973188;28;19921;-74
2023/03/26 00:57:36;;;;;;;;;;;;;;;11.34;59.57;96612.22;5005715;28;20309;-75
2023/03/26 01:00:15;;;;;;;;;;;;;;;11.23;59.52;96614.84;5005166;28;19918;-75
2023/03/26 01:02:38;;;;;;;;;;;;;;;11.17;59.65;96604.69;5021340;23;20050;-79
2023/03/26 01:05:24;;;;;;;;;;;;;;;11.21;59.55;96600.53;4981066;28;20243;-79
2023/03/26 01:07:50;;;;;;;;;;;;;;;11.09;60.22;96597.38;4971503;28;20016;-79
2023/03/26 01:10:15;;;;;;;;;;;;;;;11.16;59.72;96592.72;4986323;28;20057;-79
2023/03/26 01:12:41;;;;;;;;;;;;;;;11.17;59.75;96589.84;4970206;28;20386;-79
2023/03/26 01:15:07;;;;;;;;;;;;;;;11.14;59.77;96597.38;5003030;28;19929;-78
2023/03/26 01:17:36;;;;;;;;;;;;;;;11.09;59.82;96584.38;4973548;28;19918;-79
2023/03/26 01:20:10;;;;;;;;;;;;;;;11.11;59.87;96579.69;4972757;28;20008;-80
2023/03/26 01:22:35;;;;;;;;;;;;;;;11.04;60.80;96579.97;4988592;28;20282;-79
2023/03/26 01:25:00;;;;;;;;;;;;;;;11.13;60.38;96573.16;4965379;28;19934;-79
2023/03/26 01:27:25;;;;;;;;;;;;;;;11.24;59.91;96572.13;4973401;28;20284;-79
2023/03/26 01:29:55;;;;;;;;;;;;;;;11.33;60.15;96559.34;4974747;28;19929;-79
2023/03/26 01:32:27;;;;;;;;;;;;;;;11.29;59.62;96554.91;4996693;28;19918;-79
2023/03/26 01:34:59;;;;;;;;;;;;;;;11.40;59.27;96557.22;4964763;28;20013;-79
2023/03/26 01:37:31;;;;;;;;;;;;;;;11.35;59.09;96557.25;4971253;28;19925;-78
2023/03/26 01:39:57;;;;;;;;;;;;;;;11.38;59.38;96553.34;4986196;28;19962;-79
2023/03/26 01:42:34;;;;;;;;;;;;;;;11.39;58.99;96547.84;4988590;28;20477;-79
2023/03/26 01:45:03;;;;;;;;;;;;;;;11.35;59.06;96539.00;4989954;28;19973;-79
2023/03/26 01:47:28;;;;;;;;;;;;;;;11.38;59.27;96537.69;4988963;28;20004;-79
2023/03/26 01:49:54;;;;;;;;;;;;;;;11.41;59.19;96527.53;4988378;28;20012;-79
2023/03/26 01:52:21;;;;;;;;;;;;;;;11.43;58.84;96529.88;4986964;28;19965;-79
2023/03/26 01:54:46;;;;;;;;;;;;;;;11.32;59.16;96518.66;4973295;28;20076;-78
2023/03/26 01:57:21;;;;;;;;;;;;;;;11.25;59.10;96516.34;4988344;28;19921;-78
2023/03/26 01:59:49;;;;;;;;;;;;;;;11.20;58.93;96503.31;5004586;28;19941;-79
2023/03/26 02:02:23;;;;;;;;;;;;;;;11.04;59.07;96494.00;4994021;28;19969;-79
2023/03/26 02:05:15;;;;;;;;;;;;;;;10.96;59.69;96491.91;4984925;28;20357;-79
2023/03/26 02:07:49;;;;;;;;;;;;;;;10.92;59.51;96490.88;4976326;28;19964;-79
2023/03/26 02:10:18;;;;;;;;;;;;;;;10.94;59.83;96479.16;4973332;28;19922;-79
2023/03/26 02:12:43;;;;;;;;;;;;;;;10.92;59.79;96476.03;4999179;28;19918;-79
2023/03/26 02:15:09;;;;;;;;;;;;;;;10.93;59.69;96477.56;4992022;28;19925;-79
2023/03/26 02:17:39;;;;;;;;;;;;;;;11.00;59.27;96477.31;4969188;28;19918;-77
2023/03/26 02:20:05;;;;;;;;;;;;;;;11.00;59.54;96472.91;4968978;28;19976;-76
2023/03/26 02:22:31;;;;;;;;;;;;;;;11.01;59.37;96474.44;4968583;28;19964;-76
2023/03/26 02:24:56;;;;;;;;;;;;;;;11.00;59.67;96470.28;4977045;28;19949;-76
2023/03/26 02:27:21;;;;;;;;;;;;;;;11.04;59.71;96453.09;4969449;28;20286;-76
2023/03/26 02:29:46;;;;;;;;;;;;;;;11.01;59.70;96452.84;4968720;28;19928;-76
2023/03/26 02:32:12;;;;;;;;;;;;;;;11.00;60.04;96446.84;4990598;28;20044;-77
2023/03/26 02:34:38;;;;;;;;;;;;;;;11.06;59.62;96445.78;4958397;28;19921;-76
2023/03/26 02:37:03;;;;;;;;;;;;;;;10.95;59.85;96448.66;4984938;28;19988;-76
2023/03/26 02:39:29;;;;;;;;;;;;;;;11.03;60.08;96440.31;4985491;28;19918;-77
2023/03/26 02:41:54;;;;;;;;;;;;;;;11.04;59.67;96437.44;4969568;28;20392;-76
2023/03/26 02:44:19;;;;;;;;;;;;;;;11.04;60.08;96436.69;4968772;28;19926;-76
2023/03/26 02:46:44;;;;;;;;;;;;;;;11.09;59.97;96428.06;4962813;28;19952;-76
2023/03/26 02:49:10;;;;;;;;;;;;;;;11.12;59.56;96423.13;4968954;28;19957;-76
2023/03/26 02:51:36;;;;;;;;;;;;;;;11.13;59.74;96419.44;4968439;28;19925;-76
2023/03/26 02:54:01;;;;;;;;;;;;;;;11.21;59.60;96424.13;4968466;28;20341;-76
2023/03/26 02:56:27;;;;;;;;;;;;;;;11.23;59.88;96418.63;4968825;28;19922;-76
2023/03/26 02:58:52;;;;;;;;;;;;;;;11.23;59.73;96414.19;4968261;28;19945;-76
2023/03/26 03:01:17;;;;;;;;;;;;;;;11.28;59.54;96421.22;4969188;28;19945;-76
2023/03/26 03:03:43;;;;;;;;;;;;;;;11.18;59.92;96413.44;4970476;28;20021;-76
2023/03/26 03:06:08;;;;;;;;;;;;;;;11.25;59.87;96403.50;4970287;28;19968;-76
2023/03/26 03:08:33;;;;;;;;;;;;;;;11.27;60.14;96396.19;4962093;28;19918;-76
2023/03/26 03:10:59;;;;;;;;;;;;;;;11.27;59.83;96392.81;4984172;28;19914;-76
2023/03/26 03:13:25;;;;;;;;;;;;;;;11.29;59.67;96393.31;4968879;28;20378;-75
2023/03/26 03:15:50;;;;;;;;;;;;;;;11.31;59.83;96383.41;4970745;28;19965;-76
2023/03/26 03:18:16;;;;;;;;;;;;;;;11.35;59.77;96385.22;4972185;28;20223;-77
2023/03/26 03:20:41;;;;;;;;;;;;;;;11.36;59.43;96378.16;4971033;28;20583;-76
2023/03/26 03:23:06;;;;;;;;;;;;;;;11.31;59.53;96370.38;4958252;28;19976;-76
2023/03/26 03:25:32;;;;;;;;;;;;;;;11.34;59.48;96362.81;4988769;28;19918;-76
2023/03/26 03:27:58;;;;;;;;;;;;;;;11.46;59.01;96366.94;4972053;28;19918;-76
2023/03/26 03:30:23;;;;;;;;;;;;;;;11.25;59.94;96375.63;4971360;28;19918;-76
2023/03/26 03:32:48;;;;;;;;;;;;;;;11.35;59.76;96358.38;4972008;28;19918;-76
2023/03/26 03:35:14;;;;;;;;;;;;;;;11.39;59.67;96349.75;4987316;28;19926;-76
2023/03/26 03:37:39;;;;;;;;;;;;;;;11.39;60.10;96349.75;4976590;28;20016;-76
2023/03/26 03:40:06;;;;;;;;;;;;;;;11.47;59.10;96355.47;4963010;28;20013;-76
2023/03/26 03:42:31;;;;;;;;;;;;;;;11.42;59.61;96338.00;4987806;28;19918;-77
2023/03/26 03:44:57;;;;;;;;;;;;;;;11.42;59.70;96341.38;4971185;28;20021;-77
2023/03/26 03:47:38;;;;;;;;;;;;;;;11.44;59.65;96330.69;4971767;28;20020;-76
2023/03/26 03:50:04;;;;;;;;;;;;;;;11.46;59.88;96322.59;4968106;28;20033;-76
2023/03/26 03:52:30;;;;;;;;;;;;;;;11.46;59.42;96317.41;4987237;28;19918;-76
2023/03/26 03:54:56;;;;;;;;;;;;;;;11.39;59.75;96313.25;4971463;28;20016;-77
2023/03/26 03:57:22;;;;;;;;;;;;;;;11.38;59.61;96309.09;4987265;28;19940;-76
2023/03/26 03:59:48;;;;;;;;;;;;;;;11.36;59.80;96295.56;4987112;28;20352;-77
2023/03/26 04:02:13;;;;;;;;;;;;;;;11.51;59.51;96291.28;4970442;28;20344;-77
2023/03/26 04:04:39;;;;;;;;;;;;;;;11.50;59.58;96287.13;4976543;28;19918;-77
2023/03/26 04:07:04;;;;;;;;;;;;;;;11.48;59.32;96273.59;4998353;28;19922;-77
2023/03/26 04:09:30;;;;;;;;;;;;;;;11.56;59.40;96265.19;5003159;28;19957;-77
2023/03/26 04:11:55;;;;;;;;;;;;;;;11.49;59.52;96264.72;4987063;28;19918;-76
2023/03/26 04:14:20;;;;;;;;;;;;;;;11.53;59.54;96266.53;4971159;28;20429;-77
2023/03/26 04:16:47;;;;;;;;;;;;;;;11.50;59.72;96254.03;4971066;28;19918;-76
2023/03/26 04:19:13;;;;;;;;;;;;;;;11.41;59.81;96247.81;4970829;28;20001;-76
2023/03/26 04:21:41;;;;;;;;;;;;;;;11.46;59.79;96247.03;4970461;28;20464;-76
2023/03/26 04:24:07;;;;;;;;;;;;;;;11.52;59.31;96251.16;4972029;28;19922;-76
2023/03/26 04:26:32;;;;;;;;;;;;;;;11.45;59.56;96248.84;4986644;28;19923;-76
2023/03/26 04:29:01;;;;;;;;;;;;;;;11.48;59.49;96247.53;4966773;28;20424;-76
2023/03/26 04:31:29;;;;;;;;;;;;;;;11.41;59.62;96237.41;4973007;28;19921;-76
2023/03/26 04:33:55;;;;;;;;;;;;;;;11.40;59.97;96235.88;4982220;28;19925;-76
2023/03/26 04:36:30;;;;;;;;;;;;;;;11.41;59.64;96243.41;4986437;28;19926;-76
2023/03/26 04:38:57;;;;;;;;;;;;;;;11.37;59.96;96237.16;4986269;28;20389;-76
2023/03/26 04:41:25;;;;;;;;;;;;;;;11.43;59.89;96235.31;4981276;28;20329;-77
2023/03/26 04:43:50;;;;;;;;;;;;;;;11.40;60.13;96235.88;4984441;28;19917;-77
2023/03/26 04:46:22;;;;;;;;;;;;;;;11.36;60.29;96225.22;4981446;28;20563;-76
2023/03/26 04:48:48;;;;;;;;;;;;;;;11.59;59.59;96228.16;4984018;28;20025;-76
2023/03/26 04:51:20;;;;;;;;;;;;;;;11.54;60.21;96222.97;4985752;28;19917;-77
2023/03/26 04:53:59;;;;;;;;;;;;;;;11.67;59.80;96214.53;4999640;28;19925;-76
2023/03/26 04:56:44;;;;;;;;;;;;;;;11.61;59.95;96208.56;4997311;28;19917;-77
2023/03/26 04:59:12;;;;;;;;;;;;;;;11.68;60.30;96210.84;4980021;28;20004;-76
2023/03/26 05:01:39;;;;;;;;;;;;;;;11.61;60.70;96213.00;4974945;28;19970;-76
2023/03/26 05:04:04;;;;;;;;;;;;;;;11.68;60.21;96203.03;4995877;28;19918;-76
2023/03/26 05:06:33;;;;;;;;;;;;;;;11.64;60.22;96198.66;4968615;28;19926;-76
2023/03/26 05:08:58;;;;;;;;;;;;;;;11.71;60.36;96193.91;4984821;28;19945;-76
2023/03/26 05:11:23;;;;;;;;;;;;;;;11.73;60.19;96186.56;4979626;28;20384;-76
2023/03/26 05:13:49;;;;;;;;;;;;;;;11.68;60.46;96174.34;4996807;28;20111;-77
2023/03/26 05:16:14;;;;;;;;;;;;;;;11.80;60.31;96177.34;4980891;28;19922;-77
2023/03/26 05:18:39;;;;;;;;;;;;;;;11.81;60.00;96171.09;4999685;28;19965;-77
2023/03/26 05:21:05;;;;;;;;;;;;;;;11.77;60.24;96162.28;4984116;28;19918;-76
2023/03/26 05:23:30;;;;;;;;;;;;;;;11.73;60.98;96166.47;4982228;28;20312;-77
2023/03/26 05:25:55;;;;;;;;;;;;;;;11.73;60.27;96161.25;4979861;28;19921;-77
2023/03/26 05:28:23;;;;;;;;;;;;;;;11.69;60.50;96159.50;4979814;28;20056;-77
2023/03/26 05:30:49;;;;;;;;;;;;;;;11.84;60.77;96154.13;4981422;28;19918;-76
2023/03/26 05:33:15;;;;;;;;;;;;;;;11.89;60.34;96154.06;4984243;28;19921;-77
2023/03/26 05:35:40;;;;;;;;;;;;;;;11.83;60.33;96138.75;4981916;28;19965;-77
2023/03/26 05:38:05;;;;;;;;;;;;;;;11.75;60.61;96133.06;4967299;28;19949;-77
2023/03/26 05:40:31;;;;;;;;;;;;;;;11.75;60.62;96124.47;4987875;28;20293;-77
2023/03/26 05:42:56;;;;;;;;;;;;;;;11.80;60.82;96119.22;4996680;28;19929;-77
2023/03/26 05:45:21;;;;;;;;;;;;;;;11.80;61.06;96119.97;5000553;28;20163;-77
2023/03/26 05:47:48;;;;;;;;;;;;;;;11.78;61.23;96121.31;4983919;28;19948;-77
2023/03/26 05:50:14;;;;;;;;;;;;;;;11.66;61.22;96106.06;4980077;28;20425;-77
2023/03/26 05:52:39;;;;;;;;;;;;;;;11.68;61.77;96090.91;4996697;28;19918;-77
2023/03/26 05:55:05;;;;;;;;;;;;;;;11.70;61.35;96091.41;4980370;28;19918;-77
2023/03/26 05:57:30;;;;;;;;;;;;;;;11.66;62.03;96082.59;5000968;28;19928;-77
2023/03/26 05:59:56;;;;;;;;;;;;;;;11.67;61.98;96072.94;4984201;28;20285;-77
2023/03/26 06:02:21;;;;;;;;;;;;;;;11.70;62.02;96069.78;4974872;28;20202;-77
2023/03/26 06:04:47;;;;;;;;;;;;;;;11.70;62.27;96070.53;4980565;28;19960;-78
2023/03/26 06:07:12;;;;;;;;;;;;;;;11.70;62.26;96062.72;4996328;28;20016;-77
2023/03/26 06:09:38;;;;;;;;;;;;;;;11.70;62.02;96064.56;4972553;28;19917;-78
2023/03/26 06:12:04;;;;;;;;;;;;;;;11.71;61.90;96053.84;4987608;28;19918;-77
2023/03/26 06:14:30;;;;;;;;;;;;;;;11.76;62.35;96056.41;4980785;28;19917;-77
2023/03/26 06:16:55;;;;;;;;;;;;;;;11.74;62.17;96055.16;4968837;28;19918;-78
2023/03/26 06:19:20;;;;;;;;;;;;;;;11.73;61.77;96051.75;4978895;28;19925;-78
2023/03/26 06:21:45;;;;;;;;;;;;;;;11.72;61.92;96050.19;4966058;28;20370;-79
2023/03/26 06:24:11;;;;;;;;;;;;;;;11.77;62.05;96060.56;4966765;28;19922;-78
2023/03/26 06:26:36;;;;;;;;;;;;;;;11.76;62.12;96061.63;4981865;28;19937;-78
2023/03/26 06:29:01;;;;;;;;;;;;;;;11.72;62.14;96059.84;4968776;28;20369;-78
2023/03/26 06:31:29;;;;;;;;;;;;;;;11.83;61.81;96063.13;4976523;28;20381;-78
2023/03/26 06:33:55;;;;;;;;;;;;;;;11.76;62.07;96061.63;4985566;28;19918;-78
2023/03/26 06:36:20;;;;;;;;;;;;;;;11.27;62.29;96060.06;4985418;28;19926;-78
2023/03/26 06:38:45;;;;;;;;;;;;;;;11.59;62.06;96051.63;4963853;28;19944;-78
2023/03/26 06:41:11;;;;;;;;;;;;;;;11.48;61.88;96045.00;4968427;28;19918;-78
2023/03/26 06:43:37;;;;;;;;;;;;;;;11.58;62.30;96044.09;4973586;28;20352;-77
2023/03/26 06:46:03;;;;;;;;;;;;;;;11.43;61.91;96027.56;4979947;28;20451;-78
2023/03/26 06:48:28;;;;;;;;;;;;;;;11.20;61.51;96013.47;4984700;28;19961;-78
2023/03/26 06:50:54;;;;;;;;;;;;;;;11.40;61.26;96011.72;4985817;28;19924;-78
2023/03/26 06:53:19;;;;;;;;;;;;;;;11.54;61.64;96012.59;4999814;28;20045;-78
2023/03/26 06:55:44;;;;;;;;;;;;;;;11.45;61.36;96009.06;4972316;28;19922;-77
2023/03/26 06:58:10;;;;;;;;;;;;;;;11.34;61.91;96008.38;4978465;28;19997;-78
2023/03/26 07:00:35;;;;;;;;;;;;;;;10.79;63.16;95998.25;4960549;28;20317;-77
2023/03/26 07:03:01;;;;;;;;;;;;;;;11.15;61.87;95995.28;4985970;28;19949;-77
2023/03/26 07:05:27;;;;;;;;;;;;;;;11.30;61.88;95991.75;4980741;28;19969;-78
2023/03/26 07:07:52;;;;;;;;;;;;;;;11.32;61.92;95994.84;4997221;28;19965;-78
2023/03/26 07:10:17;;;;;;;;;;;;;;;10.93;62.55;95992.41;4999362;28;19918;-77
2023/03/26 07:12:43;;;;;;;;;;;;;;;10.93;62.71;95987.19;4986146;28;19922;-78
2023/03/26 07:15:09;;;;;;;;;;;;;;;10.95;62.22;95985.88;4988148;28;19917;-79
2023/03/26 07:17:34;;;;;;;;;;;;;;;11.08;61.87;95979.22;4984729;28;19918;-77
2023/03/26 07:20:00;;;;;;;;;;;;;;;11.09;62.12;95972.16;4991393;28;19925;-77
2023/03/26 07:22:25;;;;;;;;;;;;;;;11.17;62.50;95974.19;4963799;28;20391;-77
2023/03/26 07:24:53;;;;;;;;;;;;;;;11.28;62.63;95970.41;4972473;28;20012;-77
2023/03/26 07:27:34;;;;;;;;;;;;;;;11.01;62.80;95958.72;4987801;28;20512;-78
2023/03/26 07:30:09;;;;;;;;;;;;;;;11.04;62.74;95955.56;4987746;28;20281;-77
2023/03/26 07:32:37;;;;;;;;;;;;;;;11.00;62.52;95951.97;4994863;28;20008;-77
2023/03/26 07:35:09;;;;;;;;;;;;;;;10.86;63.09;95940.63;4996250;28;20286;-78
2023/03/26 07:37:54;;;;;;;;;;;;;;;10.89;63.26;95928.91;4971550;28;20289;-78
2023/03/26 07:40:38;;;;;;;;;;;;;;;11.11;62.92;95928.41;4988103;28;19953;-78
2023/03/26 07:43:13;;;;;;;;;;;;;;;11.15;63.14;95932.00;4971593;28;20021;-78
2023/03/26 07:45:42;;;;;;;;;;;;;;;10.87;63.03;95922.13;5002679;28;19929;-78
2023/03/26 07:48:26;;;;;;;;;;;;;;;10.99;63.83;95921.75;4971805;28;20409;-78
2023/03/26 07:50:52;;;;;;;;;;;;;;;10.90;63.51;95920.03;5002394;28;20378;-78
2023/03/26 07:53:17;;;;;;;;;;;;;;;11.03;63.52;95914.16;4998952;28;19953;-78
2023/03/26 07:55:49;;;;;;;;;;;;;;;11.02;63.93;95902.97;4982444;28;19976;-78
2023/03/26 07:58:37;;;;;;;;;;;;;;;11.24;63.35;95891.25;4998428;28;20476;-78
2023/03/26 08:01:14;;;;;;;;;;;;;;;11.17;64.30;95898.63;4981349;28;20005;-78
2023/03/26 08:03:45;;;;;;;;;;;;;;;11.30;63.91;95895.34;5001853;28;20337;-79
2023/03/26 08:06:15;;;;;;;;;;;;;;;11.46;63.72;95903.72;4986803;28;19941;-78
2023/03/26 08:08:47;;;;;;;;;;;;;;;11.53;63.88;95901.56;4984825;28;19918;-78
2023/03/26 08:11:30;;;;;;;;;;;;;;;11.57;64.75;95896.56;4970645;28;19918;-78
2023/03/26 08:14:05;;;;;;;;;;;;;;;11.76;64.99;95894.72;4982512;28;19918;-79
2023/03/26 08:16:43;;;;;;;;;;;;;;;11.98;64.33;95899.38;4982701;28;20415;-79
2023/03/26 08:19:15;;;;;;;;;;;;;;;11.85;65.04;95887.03;4982144;28;19925;-79
2023/03/26 08:21:43;;;;;;;;;;;;;;;11.93;63.73;95883.03;4985410;28;19922;-79
2023/03/26 08:24:23;;;;;;;;;;;;;;;11.92;64.06;95891.91;4986161;28;20505;-79
2023/03/26 08:26:56;;;;;;;;;;;;;;;11.83;64.58;95888.38;4985668;28;20435;-79
2023/03/26 08:29:31;;;;;;;;;;;;;;;11.60;65.11;95888.16;4981879;28;19914;-80
2023/03/26 08:31:56;;;;;;;;;;;;;;;11.62;65.88;95883.47;4981810;28;20004;-80
2023/03/26 08:34:22;;;;;;;;;;;;;;;11.55;67.02;95878.59;4973510;28;20008;-79
2023/03/26 08:36:47;;;;;;;;;;;;;;;11.93;68.29;95880.44;4976412;28;20369;-80
2023/03/26 08:39:13;;;;;;;;;;;;;;;12.09;67.55;95875.75;4970813;28;19922;-79
2023/03/26 08:41:56;;;;;;;;;;;;;;;12.31;65.59;95886.34;4970289;28;19918;-79
2023/03/26 08:44:28;;;;;;;;;;;;;;;12.78;65.04;95885.53;4978681;28;20048;-80
2023/03/26 08:46:56;;;;;;;;;;;;;;;12.78;64.76;95885.53;4977741;28;20488;-80
2023/03/26 08:49:30;;;;;;;;;;;;;;;12.85;64.60;95885.91;4969937;28;20438;-80
2023/03/26 08:52:14;;;;;;;;;;;;;;;12.93;64.09;95882.63;4969559;28;20398;-79
2023/03/26 08:54:52;;;;;;;;;;;;;;;13.00;64.61;95882.25;4971001;28;19922;-80
2023/03/26 08:57:24;;;;;;;;;;;;;;;12.57;65.44;95885.13;4971511;28;19926;-80
2023/03/26 08:59:52;;;;;;;;;;;;;;;13.04;64.17;95877.97;4969949;28;20361;-81
2023/03/26 09:02:20;;;;;;;;;;;;;;;12.46;65.02;95869.66;4979295;28;19922;-79
2023/03/26 09:04:55;;;;;;;;;;;;;;;12.75;64.75;95871.22;4970605;28;19924;-79
2023/03/26 09:07:23;;;;;;;;;;;;;;;13.04;64.35;95884.00;4971650;28;19936;-80
2023/03/26 09:09:51;;;;;;;;;;;;;;;12.96;65.19;95876.84;4969966;28;19980;-80
2023/03/26 09:12:38;;;;;;;;;;;;;;;13.17;63.74;95871.97;4970215;28;19929;-79
2023/03/26 09:15:18;;;;;;;;;;;;;;;13.30;64.60;95879.00;4969984;28;19925;-80
2023/03/26 09:17:46;;;;;;;;;;;;;;;13.32;63.84;95885.84;4970163;28;20585;-80
2023/03/26 09:20:47;;;;;;;;;;;;;;;13.41;63.96;95879.59;4969912;28;19929;-80
2023/03/26 09:23:15;;;;;;;;;;;;;;;13.67;63.53;95871.19;4971015;28;19964;-82
2023/03/26 09:25:55;;;;;;;;;;;;;;;13.83;63.85;95871.66;4978729;28;19922;-80
2023/03/26 09:28:24;;;;;;;;;;;;;;;14.03;62.54;95871.16;4986366;28;20032;-79
2023/03/26 09:30:52;;;;;;;;;;;;;;;13.52;63.56;95855.84;4986525;28;19922;-80
2023/03/26 09:33:23;;;;;;;;;;;;;;;14.12;64.56;95852.09;4970130;28;20393;-80
2023/03/26 09:36:01;;;;;;;;;;;;;;;14.56;63.66;95853.09;4986608;28;20484;-79
2023/03/26 09:38:30;;;;;;;;;;;;;;;14.96;62.55;95847.88;4969836;28;19918;-80
2023/03/26 09:41:06;;;;;;;;;;;;;;;15.11;61.28;95844.03;4970122;28;20009;-80
2023/03/26 09:43:42;;;;;;;;;;;;;;;15.23;59.11;95846.84;4958232;28;20324;-80
2023/03/26 09:46:10;;;;;;;;;;;;;;;14.76;59.63;95842.09;4988304;28;20397;-79
2023/03/26 09:48:36;;;;;;;;;;;;;;;14.33;58.88;95842.69;4969936;28;20045;-78
2023/03/26 09:51:04;;;;;;;;;;;;;;;14.57;58.37;95839.72;4969148;28;20005;-79
2023/03/26 09:53:49;;;;;;;;;;;;;;;14.36;59.46;95846.53;4969384;28;20341;-79
2023/03/26 09:56:29;;;;;;;;;;;;;;;14.38;59.47;95860.13;4969254;28;20020;-79
2023/03/26 09:59:15;;;;;;;;;;;;;;;13.94;59.27;95862.47;4968946;28;19964;-78
2023/03/26 10:01:47;;;;;;;;;;;;;;;13.61;60.85;95865.31;4971506;28;20406;-79
2023/03/26 10:04:32;;;;;;;;;;;;;;;13.52;61.30;95872.31;4971457;28;19941;-78
2023/03/26 10:07:13;;;;;;;;;;;;;;;13.05;63.78;95869.06;4986162;28;20452;-81
2023/03/26 10:09:50;;;;;;;;;;;;;;;13.51;64.81;95862.94;4969186;28;19922;-80
2023/03/26 10:12:36;;;;;;;;;;;;;;;13.58;64.25;95844.22;4969000;28;19980;-80
2023/03/26 10:15:20;;;;;;;;;;;;;;;14.18;64.21;95864.00;4969256;28;19973;-80
2023/03/26 10:17:51;;;;;;;;;;;;;;;14.24;62.19;95862.81;4985254;28;19918;-78
2023/03/26 10:20:36;;;;;;;;;;;;;;;14.65;60.25;95876.75;4968800;28;20250;-79
2023/03/26 10:23:18;;;;;;;;;;;;;;;14.85;59.12;95862.34;4969254;28;20381;-79
2023/03/26 10:25:53;;;;;;;;;;;;;;;14.59;60.63;95870.88;4969444;28;19925;-78
2023/03/26 10:28:31;;;;;;;;;;;;;;;14.49;58.41;95865.88;4974302;28;19925;-79
2023/03/26 10:31:05;;;;;;;;;;;;;;;14.78;58.20;95868.78;4973080;28;19918;-79
2023/03/26 10:33:46;;;;;;;;;;;;;;;15.02;57.18;95872.09;4975036;28;19964;-80
2023/03/26 10:36:29;;;;;;;;;;;;;;;14.82;57.26;95868.19;4989180;28;19918;-80
2023/03/26 10:39:08;;;;;;;;;;;;;;;14.97;56.59;95871.16;4969138;28;19927;-80
2023/03/26 10:41:37;;;;;;;;;;;;;;;14.77;54.71;95864.63;4972259;28;19918;-78
2023/03/26 10:44:21;;;;;;;;;;;;;;;15.10;55.43;95873.97;4972629;28;19918;-79
2023/03/26 10:47:01;;;;;;;;;;;;;;;15.28;58.34;95869.53;4973829;28;19977;-79
2023/03/26 10:49:48;;;;;;;;;;;;;;;15.45;56.45;95861.66;4988923;28;19925;-79
2023/03/26 10:52:15;;;;;;;;;;;;;;;15.19;56.58;95856.41;4972675;28;20307;-79
2023/03/26 10:54:40;;;;;;;;;;;;;;;15.24;57.45;95855.50;4973164;28;19918;-79
2023/03/26 10:57:18;;;;;;;;;;;;;;;14.38;56.68;95860.88;4988751;28;19981;-77
2023/03/26 10:59:43;;;;;;;;;;;;;;;14.50;55.70;95862.94;4971590;28;19980;-79
2023/03/26 11:02:28;;;;;;;;;;;;;;;14.86;55.81;95861.28;4974897;28;19976;-79
2023/03/26 11:04:55;;;;;;;;;;;;;;;14.57;57.25;95867.75;4988985;28;19922;-79
2023/03/26 11:07:33;;;;;;;;;;;;;;;14.01;56.75;95869.91;4972012;28;20808;-79
2023/03/26 11:09:58;;;;;;;;;;;;;;;14.01;55.15;95872.53;4971969;28;20004;-78
2023/03/26 11:12:39;;;;;;;;;;;;;;;14.05;57.22;95874.25;4972284;28;20478;-77
2023/03/26 11:15:13;;;;;;;;;;;;;;;14.36;55.28;95870.91;4988430;28;19925;-79
2023/03/26 11:17:42;;;;;;;;;;;;;;;14.79;55.48;95872.94;4972167;28;20405;-78
2023/03/26 11:20:19;;;;;;;;;;;;;;;14.82;54.79;95878.66;4972732;28;19922;-78
2023/03/26 11:23:03;;;;;;;;;;;;;;;14.54;55.00;95884.84;4972359;28;20438;-79
2023/03/26 11:25:28;;;;;;;;;;;;;;;14.43;52.73;95876.47;4980724;28;19922;-79
2023/03/26 11:27:57;;;;;;;;;;;;;;;14.52;54.15;95875.75;4972247;28;19918;-79
2023/03/26 11:30:27;;;;;;;;;;;;;;;14.35;53.79;95876.44;4971755;28;20375;-80
2023/03/26 11:33:17;;;;;;;;;;;;;;;14.43;54.36;95886.19;4980088;28;19924;-79
2023/03/26 11:35:44;;;;;;;;;;;;;;;13.95;53.35;95884.16;4971867;28;19922;-81
2023/03/26 11:38:28;;;;;;;;;;;;;;;13.92;52.83;95884.78;4971607;28;19918;-77
2023/03/26 11:40:55;;;;;;;;;;;;;;;13.95;51.81;95895.44;4971655;28;19961;-80
2023/03/26 11:43:24;;;;;;;;;;;;;;;14.13;52.00;95879.84;4955484;28;19976;-79
2023/03/26 11:45:50;;;;;;;;;;;;;;;13.78;54.35;95880.38;4988379;28;20345;-78
2023/03/26 11:48:24;;;;;;;;;;;;;;;14.16;52.07;95881.88;4970122;28;19918;-79
2023/03/26 11:50:51;;;;;;;;;;;;;;;14.44;50.83;95874.63;4959939;28;19918;-78
2023/03/26 11:53:18;;;;;;;;;;;;;;;14.87;53.51;95873.28;4955035;28;19924;-80
2023/03/26 11:55:45;;;;;;;;;;;;;;;15.37;49.80;95872.94;4971751;28;20368;-78
2023/03/26 11:58:21;;;;;;;;;;;;;;;15.68;48.31;95866.78;4971046;28;19928;-79
2023/03/26 12:00:47;;;;;;;;;;;;;;;15.52;46.12;95856.75;4971098;28;20374;-79
2023/03/26 12:03:16;;;;;;;;;;;;;;;15.66;47.36;95847.94;4973853;28;19972;-82
2023/03/26 12:05:52;;;;;;;;;;;;;;;15.58;47.17;95861.84;4971106;28;19928;-80
2023/03/26 12:08:22;;;;;;;;;;;;;;;15.30;47.05;95869.97;4987135;28;20036;-79
2023/03/26 12:10:57;;;;;;;;;;;;;;;15.54;48.66;95872.97;4970881;28;19921;-79
2023/03/26 12:13:34;;;;;;;;;;;;;;;15.64;47.44;95861.38;4971487;28;20369;-78
2023/03/26 12:16:07;;;;;;;;;;;;;;;15.90;47.17;95864.03;4987650;28;19918;-81
2023/03/26 12:18:32;;;;;;;;;;;;;;;16.08;45.54;95858.75;4964160;28;19965;-79
2023/03/26 12:21:06;;;;;;;;;;;;;;;15.88;44.37;95852.28;4970369;28;19988;-78
2023/03/26 12:23:36;;;;;;;;;;;;;;;15.74;44.43;95860.28;4977944;28;19965;-78
2023/03/26 12:26:12;;;;;;;;;;;;;;;15.71;44.64;95845.16;4971049;28;19929;-77
2023/03/26 12:28:37;;;;;;;;;;;;;;;16.01;44.41;95843.47;4972151;28;20344;-78
2023/03/26 12:31:03;;;;;;;;;;;;;;;15.49;46.23;95838.22;4970080;28;19917;-79
2023/03/26 12:33:32;;;;;;;;;;;;;;;15.48;45.51;95829.59;4987415;28;19922;-79
2023/03/26 12:35:59;;;;;;;;;;;;;;;15.70;42.69;95826.03;4970766;28;19922;-78
2023/03/26 12:38:29;;;;;;;;;;;;;;;15.64;42.29;95824.63;4962346;28;19980;-79
2023/03/26 12:41:13;;;;;;;;;;;;;;;15.59;43.15;95824.03;4970129;28;19924;-77
2023/03/26 12:43:40;;;;;;;;;;;;;;;15.43;42.88;95819.25;4970668;28;19918;-78
2023/03/26 12:46:24;;;;;;;;;;;;;;;15.29;44.11;95818.63;4986316;28;20147;-77
2023/03/26 12:48:53;;;;;;;;;;;;;;;15.43;43.96;95814.00;4970423;28;19922;-78
2023/03/26 12:51:39;;;;;;;;;;;;;;;15.63;45.23;95823.09;4986280;28;19926;-80
2023/03/26 12:54:14;;;;;;;;;;;;;;;15.80;45.41;95809.22;4970338;28;20310;-78
2023/03/26 12:57:04;;;;;;;;;;;;;;;15.64;43.78;95797.63;4970301;28;19988;-77
2023/03/26 12:59:36;;;;;;;;;;;;;;;15.93;43.19;95798.84;4952858;28;20401;-79
2023/03/26 13:02:01;;;;;;;;;;;;;;;15.15;43.90;95790.69;4978004;28;20332;-78